sensor_id;sensor_type;location;lat;lon;timestamp;pressure;altitude;pressure_sealevel;temperature;humidity
49827;BME280;35715;51.570;6.036;2023-08-06T00:00:08;100271.91;;;17.22;94.56
49827;BME280;35715;51.570;6.036;2023-08-06T00:02:33;100270.16;;;17.23;94.49
49827;BME280;35715;51.570;6.036;2023-08-06T00:04:59;100272.59;;;17.16;94.69
49827;BME280;35715;51.570;6.036;2023-08-06T00:07:24;100273.22;;;17.09;95.14
49827;BME280;35715;51.570;6.036;2023-08-06T00:09:50;100280.84;;;17.03;95.25
49827;BME280;35715;51.570;6.036;2023-08-06T00:12:15;100271.28;;;17.02;95.51
49827;BME280;35715;51.570;6.036;2023-08-06T00:14:40;100271.09;;;16.96;96.00
49827;BME280;35715;51.570;6.036;2023-08-06T00:17:06;100273.09;;;17.05;95.86
49827;BME280;35715;51.570;6.036;2023-08-06T00:19:32;100255.75;;;17.05;95.71
49827;BME280;35715;51.570;6.036;2023-08-06T00:21:57;100260.19;;;17.09;95.14
49827;BME280;35715;51.570;6.036;2023-08-06T00:24:23;100253.97;;;17.04;95.71
49827;BME280;35715;51.570;6.036;2023-08-06T00:26:48;100251.16;;;16.98;95.97
49827;BME280;35715;51.570;6.036;2023-08-06T00:29:13;100257.41;;;17.03;95.53
49827;BME280;35715;51.570;6.036;2023-08-06T00:31:39;100249.94;;;17.14;95.77
49827;BME280;35715;51.570;6.036;2023-08-06T00:34:04;100252.81;;;17.23;95.22
49827;BME280;35715;51.570;6.036;2023-08-06T00:36:30;100245.38;;;17.35;95.42
49827;BME280;35715;51.570;6.036;2023-08-06T00:38:55;100242.81;;;17.37;95.14
49827;BME280;35715;51.570;6.036;2023-08-06T00:41:21;100247.34;;;17.43;94.65
49827;BME280;35715;51.570;6.036;2023-08-06T00:43:46;100248.31;;;17.46;94.69
49827;BME280;35715;51.570;6.036;2023-08-06T00:46:12;100252.69;;;17.47;95.01
49827;BME280;35715;51.570;6.036;2023-08-06T00:48:37;100251.94;;;17.51;94.57
49827;BME280;35715;51.570;6.036;2023-08-06T00:51:03;100252.00;;;17.54;93.55
49827;BME280;35715;51.570;6.036;2023-08-06T00:53:28;100248.66;;;17.59;94.22
49827;BME280;35715;51.570;6.036;2023-08-06T00:55:54;100245.22;;;17.60;92.88
49827;BME280;35715;51.570;6.036;2023-08-06T00:58:19;100243.31;;;17.54;92.48
49827;BME280;35715;51.570;6.036;2023-08-06T01:00:45;100242.41;;;17.52;92.46
49827;BME280;35715;51.570;6.036;2023-08-06T01:03:11;100239.88;;;17.55;91.96
49827;BME280;35715;51.570;6.036;2023-08-06T01:05:36;100243.31;;;17.54;92.64
49827;BME280;35715;51.570;6.036;2023-08-06T01:08:28;100242.31;;;17.49;92.77
49827;BME280;35715;51.570;6.036;2023-08-06T01:13:42;100232.78;;;17.51;92.09
49827;BME280;35715;51.570;6.036;2023-08-06T01:16:15;100230.22;;;17.52;91.40
49827;BME280;35715;51.570;6.036;2023-08-06T01:18:41;100236.09;;;17.45;90.68
49827;BME280;35715;51.570;6.036;2023-08-06T01:21:08;100230.88;;;17.45;89.92
49827;BME280;35715;51.570;6.036;2023-08-06T01:23:34;100232.56;;;17.43;89.64
49827;BME280;35715;51.570;6.036;2023-08-06T01:26:19;100228.19;;;17.42;88.96
49827;BME280;35715;51.570;6.036;2023-08-06T01:31:31;100237.59;;;17.37;89.84
49827;BME280;35715;51.570;6.036;2023-08-06T01:33:59;100229.09;;;17.43;89.85
49827;BME280;35715;51.570;6.036;2023-08-06T01:36:26;100238.47;;;17.37;90.41
49827;BME280;35715;51.570;6.036;2023-08-06T01:38:53;100226.47;;;17.43;90.20
49827;BME280;35715;51.570;6.036;2023-08-06T01:41:18;100238.69;;;17.45;90.76
49827;BME280;35715;51.570;6.036;2023-08-06T01:43:44;100227.25;;;17.40;90.88
49827;BME280;35715;51.570;6.036;2023-08-06T01:46:09;100225.53;;;17.41;89.97
49827;BME280;35715;51.570;6.036;2023-08-06T01:48:35;100225.56;;;17.42;90.47
49827;BME280;35715;51.570;6.036;2023-08-06T01:51:00;100227.31;;;17.42;90.96
49827;BME280;35715;51.570;6.036;2023-08-06T01:53:25;100221.19;;;17.40;90.71
49827;BME280;35715;51.570;6.036;2023-08-06T01:55:51;100223.63;;;17.35;90.12
49827;BME280;35715;51.570;6.036;2023-08-06T01:58:16;100226.13;;;17.32;90.48
49827;BME280;35715;51.570;6.036;2023-08-06T02:00:41;100227.00;;;17.31;89.88
49827;BME280;35715;51.570;6.036;2023-08-06T02:03:07;100226.94;;;17.29;90.13
49827;BME280;35715;51.570;6.036;2023-08-06T02:05:32;100230.38;;;17.28;90.40
49827;BME280;35715;51.570;6.036;2023-08-06T02:07:58;100232.75;;;17.20;90.23
49827;BME280;35715;51.570;6.036;2023-08-06T02:10:23;100230.47;;;17.31;90.73
49827;BME280;35715;51.570;6.036;2023-08-06T02:12:49;100233.31;;;17.39;91.05
49827;BME280;35715;51.570;6.036;2023-08-06T02:15:14;100241.22;;;17.42;90.33
49827;BME280;35715;51.570;6.036;2023-08-06T02:17:42;100234.25;;;17.41;89.98
49827;BME280;35715;51.570;6.036;2023-08-06T02:20:08;100226.53;;;17.44;91.10
49827;BME280;35715;51.570;6.036;2023-08-06T02:22:34;100225.72;;;17.47;90.70
49827;BME280;35715;51.570;6.036;2023-08-06T02:24:59;100222.84;;;17.37;91.11
49827;BME280;35715;51.570;6.036;2023-08-06T02:27:24;100220.13;;;17.34;90.47
49827;BME280;35715;51.570;6.036;2023-08-06T02:29:50;100223.56;;;17.33;90.38
49827;BME280;35715;51.570;6.036;2023-08-06T02:32:15;100214.19;;;17.38;90.75
49827;BME280;35715;51.570;6.036;2023-08-06T02:34:41;100218.41;;;17.35;90.50
49827;BME280;35715;51.570;6.036;2023-08-06T02:37:06;100210.56;;;17.35;91.12
49827;BME280;35715;51.570;6.036;2023-08-06T02:39:31;100205.09;;;17.26;91.43
49827;BME280;35715;51.570;6.036;2023-08-06T02:42:01;100205.91;;;17.23;92.04
49827;BME280;35715;51.570;6.036;2023-08-06T02:44:28;100198.78;;;17.17;93.22
49827;BME280;35715;51.570;6.036;2023-08-06T02:46:53;100208.22;;;17.14;93.27
49827;BME280;35715;51.570;6.036;2023-08-06T02:49:19;100196.31;;;17.22;93.34
49827;BME280;35715;51.570;6.036;2023-08-06T02:51:47;100210.22;;;17.23;92.72
49827;BME280;35715;51.570;6.036;2023-08-06T02:54:12;100199.81;;;17.24;93.53
49827;BME280;35715;51.570;6.036;2023-08-06T02:56:38;100195.53;;;17.25;94.52
49827;BME280;35715;51.570;6.036;2023-08-06T02:59:03;100206.03;;;17.28;93.95
49827;BME280;35715;51.570;6.036;2023-08-06T03:01:29;100199.28;;;17.34;94.37
49827;BME280;35715;51.570;6.036;2023-08-06T03:03:54;100193.31;;;17.38;94.83
49827;BME280;35715;51.570;6.036;2023-08-06T03:06:19;100192.53;;;17.41;95.05
49827;BME280;35715;51.570;6.036;2023-08-06T03:08:45;100191.44;;;17.34;94.23
49827;BME280;35715;51.570;6.036;2023-08-06T03:11:10;100192.13;;;17.29;94.15
49827;BME280;35715;51.570;6.036;2023-08-06T03:13:35;100191.28;;;17.28;93.45
49827;BME280;35715;51.570;6.036;2023-08-06T03:16:01;100196.56;;;17.31;93.61
49827;BME280;35715;51.570;6.036;2023-08-06T03:18:26;100187.91;;;17.32;93.31
49827;BME280;35715;51.570;6.036;2023-08-06T03:20:52;100189.63;;;17.32;93.06
49827;BME280;35715;51.570;6.036;2023-08-06T03:23:18;100185.34;;;17.34;93.49
49827;BME280;35715;51.570;6.036;2023-08-06T03:25:44;100186.09;;;17.30;93.36
49827;BME280;35715;51.570;6.036;2023-08-06T03:28:09;100186.97;;;17.30;92.67
49827;BME280;35715;51.570;6.036;2023-08-06T03:30:35;100184.19;;;17.24;92.48
49827;BME280;35715;51.570;6.036;2023-08-06T03:33:00;100181.72;;;17.29;92.77
49827;BME280;35715;51.570;6.036;2023-08-06T03:35:28;100175.63;;;17.28;92.76
49827;BME280;35715;51.570;6.036;2023-08-06T03:37:54;100176.41;;;17.26;93.33
49827;BME280;35715;51.570;6.036;2023-08-06T03:40:19;100172.94;;;17.25;93.88
49827;BME280;35715;51.570;6.036;2023-08-06T03:42:44;100175.50;;;17.24;94.25
49827;BME280;35715;51.570;6.036;2023-08-06T03:45:10;100173.66;;;17.21;94.54
49827;BME280;35715;51.570;6.036;2023-08-06T03:47:35;100170.91;;;17.16;94.41
49827;BME280;35715;51.570;6.036;2023-08-06T03:50:01;100168.09;;;17.09;94.43
49827;BME280;35715;51.570;6.036;2023-08-06T03:52:26;100174.94;;;17.05;94.48
49827;BME280;35715;51.570;6.036;2023-08-06T03:54:51;100174.81;;;17.00;94.59
49827;BME280;35715;51.570;6.036;2023-08-06T03:57:17;100179.00;;;16.97;94.95
49827;BME280;35715;51.570;6.036;2023-08-06T03:59:42;100179.81;;;16.94;95.15
49827;BME280;35715;51.570;6.036;2023-08-06T04:02:08;100176.19;;;16.89;95.54
49827;BME280;35715;51.570;6.036;2023-08-06T04:04:33;100177.63;;;16.81;95.25
49827;BME280;35715;51.570;6.036;2023-08-06T04:06:58;100175.75;;;16.77;95.28
49827;BME280;35715;51.570;6.036;2023-08-06T04:09:24;100185.25;;;16.75;95.85
49827;BME280;35715;51.570;6.036;2023-08-06T04:11:49;100183.44;;;16.72;96.53
49827;BME280;35715;51.570;6.036;2023-08-06T04:14:14;100183.25;;;16.66;96.49
49827;BME280;35715;51.570;6.036;2023-08-06T04:16:40;100191.78;;;16.62;97.43
49827;BME280;35715;51.570;6.036;2023-08-06T04:19:05;100191.72;;;16.60;97.88
49827;BME280;35715;51.570;6.036;2023-08-06T04:21:30;100196.94;;;16.60;97.82
49827;BME280;35715;51.570;6.036;2023-08-06T04:23:56;100194.28;;;16.59;98.33
49827;BME280;35715;51.570;6.036;2023-08-06T04:26:22;100196.94;;;16.60;98.88
49827;BME280;35715;51.570;6.036;2023-08-06T04:28:47;100186.56;;;16.62;98.99
49827;BME280;35715;51.570;6.036;2023-08-06T04:31:14;100184.97;;;16.65;99.53
49827;BME280;35715;51.570;6.036;2023-08-06T04:33:39;100191.94;;;16.66;99.64
49827;BME280;35715;51.570;6.036;2023-08-06T04:36:04;100198.97;;;16.69;99.67
49827;BME280;35715;51.570;6.036;2023-08-06T04:38:30;100192.97;;;16.72;99.96
49827;BME280;35715;51.570;6.036;2023-08-06T04:40:55;100198.25;;;16.73;99.56
49827;BME280;35715;51.570;6.036;2023-08-06T04:43:20;100198.25;;;16.73;99.83
49827;BME280;35715;51.570;6.036;2023-08-06T04:45:47;100200.94;;;16.76;99.67
49827;BME280;35715;51.570;6.036;2023-08-06T04:48:13;100201.81;;;16.77;99.50
49827;BME280;35715;51.570;6.036;2023-08-06T04:50:38;100213.09;;;16.77;99.53
49827;BME280;35715;51.570;6.036;2023-08-06T04:53:03;100207.78;;;16.74;99.79
49827;BME280;35715;51.570;6.036;2023-08-06T04:55:29;100213.06;;;16.76;99.56
49827;BME280;35715;51.570;6.036;2023-08-06T04:57:54;100203.50;;;16.75;99.57
49827;BME280;35715;51.570;6.036;2023-08-06T05:00:19;100209.53;;;16.74;99.50
49827;BME280;35715;51.570;6.036;2023-08-06T05:02:45;100213.88;;;16.73;99.85
49827;BME280;35715;51.570;6.036;2023-08-06T05:05:10;100209.53;;;16.74;100.00
49827;BME280;35715;51.570;6.036;2023-08-06T05:07:35;100213.88;;;16.73;100.00
49827;BME280;35715;51.570;6.036;2023-08-06T05:10:01;100215.56;;;16.73;100.00
49827;BME280;35715;51.570;6.036;2023-08-06T05:12:28;100219.94;;;16.74;100.00
49827;BME280;35715;51.570;6.036;2023-08-06T05:14:53;100219.03;;;16.72;100.00
49827;BME280;35715;51.570;6.036;2023-08-06T05:17:18;100220.78;;;16.73;100.00
49827;BME280;35715;51.570;6.036;2023-08-06T05:19:44;100225.31;;;16.78;100.00
49827;BME280;35715;51.570;6.036;2023-08-06T05:22:09;100227.28;;;16.85;100.00
49827;BME280;35715;51.570;6.036;2023-08-06T05:24:34;100220.56;;;16.92;100.00
49827;BME280;35715;51.570;6.036;2023-08-06T05:27:00;100221.81;;;17.03;100.00
49827;BME280;35715;51.570;6.036;2023-08-06T05:29:25;100229.91;;;17.13;100.00
49827;BME280;35715;51.570;6.036;2023-08-06T05:31:52;100233.50;;;17.16;100.00
49827;BME280;35715;51.570;6.036;2023-08-06T05:34:17;100234.50;;;17.20;100.00
49827;BME280;35715;51.570;6.036;2023-08-06T05:36:42;100238.84;;;17.21;99.89
49827;BME280;35715;51.570;6.036;2023-08-06T05:39:08;100235.41;;;17.22;100.00
49827;BME280;35715;51.570;6.036;2023-08-06T05:41:33;100243.41;;;17.28;100.00
49827;BME280;35715;51.570;6.036;2023-08-06T05:43:59;100241.88;;;17.35;99.72
49827;BME280;35715;51.570;6.036;2023-08-06T05:46:24;100231.59;;;17.40;99.69
49827;BME280;35715;51.570;6.036;2023-08-06T05:48:49;100241.25;;;17.44;99.16
49827;BME280;35715;51.570;6.036;2023-08-06T05:51:16;100239.69;;;17.49;99.78
49827;BME280;35715;51.570;6.036;2023-08-06T05:53:41;100244.06;;;17.50;99.73
49827;BME280;35715;51.570;6.036;2023-08-06T05:56:07;100245.94;;;17.54;98.96
49827;BME280;35715;51.570;6.036;2023-08-06T05:58:32;100248.66;;;17.59;98.80
49827;BME280;35715;51.570;6.036;2023-08-06T06:00:58;100254.16;;;17.68;98.49
49827;BME280;35715;51.570;6.036;2023-08-06T06:03:23;100257.06;;;17.79;98.05
49827;BME280;35715;51.570;6.036;2023-08-06T06:05:49;100253.00;;;17.88;97.97
49827;BME280;35715;51.570;6.036;2023-08-06T06:08:14;100259.53;;;18.03;97.17
49827;BME280;35715;51.570;6.036;2023-08-06T06:10:39;100261.50;;;18.12;95.86
49827;BME280;35715;51.570;6.036;2023-08-06T06:13:05;100262.75;;;18.24;95.34
49827;BME280;35715;51.570;6.036;2023-08-06T06:15:30;100275.34;;;18.41;95.00
49827;BME280;35715;51.570;6.036;2023-08-06T06:17:55;100282.78;;;18.59;94.40
49827;BME280;35715;51.570;6.036;2023-08-06T06:20:21;100274.53;;;18.77;93.78
49827;BME280;35715;51.570;6.036;2023-08-06T06:22:47;100280.25;;;18.95;93.04
49827;BME280;35715;51.570;6.036;2023-08-06T06:25:12;100289.50;;;19.18;92.25
49827;BME280;35715;51.570;6.036;2023-08-06T06:27:37;100287.09;;;19.66;90.06
49827;BME280;35715;51.570;6.036;2023-08-06T06:30:03;100287.88;;;20.00;87.59
49827;BME280;35715;51.570;6.036;2023-08-06T06:32:31;100291.72;;;20.19;85.83
49827;BME280;35715;51.570;6.036;2023-08-06T06:34:57;100292.50;;;20.61;82.88
49827;BME280;35715;51.570;6.036;2023-08-06T06:37:23;100291.97;;;20.79;81.23
49827;BME280;35715;51.570;6.036;2023-08-06T06:39:49;100292.63;;;20.67;79.27
49827;BME280;35715;51.570;6.036;2023-08-06T06:42:14;100303.47;;;20.40;80.12
49827;BME280;35715;51.570;6.036;2023-08-06T06:44:40;100299.69;;;20.26;80.19
49827;BME280;35715;51.570;6.036;2023-08-06T06:47:05;100302.03;;;20.12;81.09
49827;BME280;35715;51.570;6.036;2023-08-06T06:49:34;100304.47;;;20.02;80.99
49827;BME280;35715;51.570;6.036;2023-08-06T06:51:59;100304.38;;;19.98;80.97
49827;BME280;35715;51.570;6.036;2023-08-06T06:54:24;100314.75;;;19.93;81.64
49827;BME280;35715;51.570;6.036;2023-08-06T06:56:50;100314.75;;;19.92;82.75
49827;BME280;35715;51.570;6.036;2023-08-06T06:59:15;100310.25;;;19.86;82.22
49827;BME280;35715;51.570;6.036;2023-08-06T07:01:41;100317.94;;;19.78;81.81
49827;BME280;35715;51.570;6.036;2023-08-06T07:04:06;100313.41;;;19.73;82.31
49827;BME280;35715;51.570;6.036;2023-08-06T07:06:31;100318.53;;;19.68;82.61
49827;BME280;35715;51.570;6.036;2023-08-06T07:08:57;100319.34;;;19.64;82.43
49827;BME280;35715;51.570;6.036;2023-08-06T07:11:22;100317.66;;;19.67;83.15
49827;BME280;35715;51.570;6.036;2023-08-06T07:13:50;100319.50;;;19.70;82.38
49827;BME280;35715;51.570;6.036;2023-08-06T07:16:20;100324.06;;;19.79;82.33
49827;BME280;35715;51.570;6.036;2023-08-06T07:18:46;100322.50;;;19.87;83.00
49827;BME280;35715;51.570;6.036;2023-08-06T07:21:11;100333.16;;;19.96;82.86
49827;BME280;35715;51.570;6.036;2023-08-06T07:23:36;100327.97;;;19.99;81.67
49827;BME280;35715;51.570;6.036;2023-08-06T07:26:02;100326.63;;;20.17;82.38
49827;BME280;35715;51.570;6.036;2023-08-06T07:28:27;100333.72;;;20.24;80.95
49827;BME280;35715;51.570;6.036;2023-08-06T07:30:53;100329.63;;;20.37;81.47
49827;BME280;35715;51.570;6.036;2023-08-06T07:33:20;100327.09;;;20.89;79.90
49827;BME280;35715;51.570;6.036;2023-08-06T07:35:46;100324.13;;;21.21;78.33
49827;BME280;35715;51.570;6.036;2023-08-06T07:38:11;100327.28;;;21.53;77.04
49827;BME280;35715;51.570;6.036;2023-08-06T07:40:37;100327.84;;;21.96;74.63
49827;BME280;35715;51.570;6.036;2023-08-06T07:43:03;100326.16;;;22.80;71.78
49827;BME280;35715;51.570;6.036;2023-08-06T07:45:32;100335.81;;;23.96;69.61
49827;BME280;35715;51.570;6.036;2023-08-06T07:47:58;100331.66;;;24.69;66.33
49827;BME280;35715;51.570;6.036;2023-08-06T07:50:23;100335.25;;;25.30;62.01
49827;BME280;35715;51.570;6.036;2023-08-06T07:52:48;100329.03;;;25.48;60.16
49827;BME280;35715;51.570;6.036;2023-08-06T07:55:14;100325.53;;;24.92;60.66
49827;BME280;35715;51.570;6.036;2023-08-06T07:57:40;100337.84;;;24.71;62.35
49827;BME280;35715;51.570;6.036;2023-08-06T08:00:06;100336.84;;;24.40;63.27
49827;BME280;35715;51.570;6.036;2023-08-06T08:02:32;100334.13;;;24.07;62.31
49827;BME280;35715;51.570;6.036;2023-08-06T08:04:57;100335.56;;;23.51;63.24
49827;BME280;35715;51.570;6.036;2023-08-06T08:07:22;100339.53;;;23.03;65.07
49827;BME280;35715;51.570;6.036;2023-08-06T08:09:48;100340.13;;;22.71;65.73
49827;BME280;35715;51.570;6.036;2023-08-06T08:12:13;100342.94;;;22.13;66.60
49827;BME280;35715;51.570;6.036;2023-08-06T08:14:39;100340.72;;;21.76;68.16
49827;BME280;35715;51.570;6.036;2023-08-06T08:17:05;100348.03;;;21.39;69.74
49827;BME280;35715;51.570;6.036;2023-08-06T08:19:33;100361.38;;;21.01;70.79
49827;BME280;35715;51.570;6.036;2023-08-06T08:21:58;100358.34;;;20.77;72.08
49827;BME280;35715;51.570;6.036;2023-08-06T08:24:24;100363.13;;;20.53;73.27
49827;BME280;35715;51.570;6.036;2023-08-06T08:26:51;100361.16;;;20.42;74.53
49827;BME280;35715;51.570;6.036;2023-08-06T08:29:17;100366.13;;;20.28;75.56
49827;BME280;35715;51.570;6.036;2023-08-06T08:31:42;100366.69;;;20.13;77.49
49827;BME280;35715;51.570;6.036;2023-08-06T08:34:09;100364.78;;;20.06;78.62
49827;BME280;35715;51.570;6.036;2023-08-06T08:36:35;100357.66;;;20.00;81.45
49827;BME280;35715;51.570;6.036;2023-08-06T08:39:00;100366.44;;;20.00;82.18
49827;BME280;35715;51.570;6.036;2023-08-06T08:41:28;100364.78;;;20.06;82.79
49827;BME280;35715;51.570;6.036;2023-08-06T08:43:58;100372.69;;;20.09;83.60
49827;BME280;35715;51.570;6.036;2023-08-06T08:46:26;100364.72;;;20.02;82.92
49827;BME280;35715;51.570;6.036;2023-08-06T08:48:53;100369.13;;;20.03;82.95
49827;BME280;35715;51.570;6.036;2023-08-06T08:51:19;100371.84;;;20.10;84.39
49827;BME280;35715;51.570;6.036;2023-08-06T08:53:47;100375.38;;;20.12;84.48
49827;BME280;35715;51.570;6.036;2023-08-06T08:56:13;100379.69;;;20.08;84.88
49827;BME280;35715;51.570;6.036;2023-08-06T08:58:39;100380.50;;;20.06;85.38
49827;BME280;35715;51.570;6.036;2023-08-06T09:01:06;100380.44;;;20.02;85.81
49827;BME280;35715;51.570;6.036;2023-08-06T09:03:33;100380.22;;;19.93;86.88
49827;BME280;35715;51.570;6.036;2023-08-06T09:05:59;100391.28;;;19.80;85.61
49827;BME280;35715;51.570;6.036;2023-08-06T09:08:31;100391.97;;;19.74;86.22
49827;BME280;35715;51.570;6.036;2023-08-06T09:11:01;100392.66;;;19.65;85.17
49827;BME280;35715;51.570;6.036;2023-08-06T09:13:26;100400.31;;;19.56;86.07
49827;BME280;35715;51.570;6.036;2023-08-06T09:15:52;100397.34;;;19.42;85.68
49827;BME280;35715;51.570;6.036;2023-08-06T09:18:25;100408.44;;;19.32;86.40
49827;BME280;35715;51.570;6.036;2023-08-06T09:20:52;100409.78;;;19.16;86.65
49827;BME280;35715;51.570;6.036;2023-08-06T09:23:17;100408.63;;;19.05;87.78
49827;BME280;35715;51.570;6.036;2023-08-06T09:25:42;100418.41;;;18.82;88.29
49827;BME280;35715;51.570;6.036;2023-08-06T09:28:08;100428.97;;;18.54;88.01
49827;BME280;35715;51.570;6.036;2023-08-06T09:30:35;100431.75;;;18.30;86.93
49827;BME280;35715;51.570;6.036;2023-08-06T09:33:01;100429.69;;;18.18;87.33
49827;BME280;35715;51.570;6.036;2023-08-06T09:35:30;100438.09;;;18.08;87.54
49827;BME280;35715;51.570;6.036;2023-08-06T09:38:06;100429.94;;;17.97;88.17
49827;BME280;35715;51.570;6.036;2023-08-06T09:40:36;100446.56;;;18.01;88.65
49827;BME280;35715;51.570;6.036;2023-08-06T09:43:02;100447.31;;;17.97;88.84
49827;BME280;35715;51.570;6.036;2023-08-06T09:45:32;100451.31;;;17.87;88.41
49827;BME280;35715;51.570;6.036;2023-08-06T09:47:59;100446.78;;;17.81;89.62
49827;BME280;35715;51.570;6.036;2023-08-06T09:50:31;100441.19;;;17.69;89.38
49827;BME280;35715;51.570;6.036;2023-08-06T09:52:58;100455.88;;;17.65;90.02
49827;BME280;35715;51.570;6.036;2023-08-06T09:55:24;100456.78;;;17.67;89.97
49827;BME280;35715;51.570;6.036;2023-08-06T09:57:53;100460.94;;;17.62;90.95
49827;BME280;35715;51.570;6.036;2023-08-06T10:00:20;100467.91;;;17.62;91.41
49827;BME280;35715;51.570;6.036;2023-08-06T10:02:46;100468.81;;;17.64;91.00
49827;BME280;35715;51.570;6.036;2023-08-06T10:05:12;100474.84;;;17.61;91.31
49827;BME280;35715;51.570;6.036;2023-08-06T10:07:39;100475.69;;;17.60;91.91
49827;BME280;35715;51.570;6.036;2023-08-06T10:10:06;100467.94;;;17.63;92.35
49827;BME280;35715;51.570;6.036;2023-08-06T10:12:34;100478.44;;;17.65;92.36
49827;BME280;35715;51.570;6.036;2023-08-06T10:15:03;100476.56;;;17.61;91.94
49827;BME280;35715;51.570;6.036;2023-08-06T10:17:31;100474.91;;;17.63;92.79
49827;BME280;35715;51.570;6.036;2023-08-06T10:19:58;100482.19;;;17.73;92.76
49827;BME280;35715;51.570;6.036;2023-08-06T10:22:24;100484.88;;;17.74;93.08
49827;BME280;35715;51.570;6.036;2023-08-06T10:24:55;100478.53;;;17.68;91.91
49827;BME280;35715;51.570;6.036;2023-08-06T10:32:53;100495.44;;;17.79;91.96
49827;BME280;35715;51.570;6.036;2023-08-06T10:35:42;100495.50;;;17.81;91.91
49827;BME280;35715;51.570;6.036;2023-08-06T10:38:19;100495.50;;;17.81;91.70
49827;BME280;35715;51.570;6.036;2023-08-06T10:41:01;100508.50;;;17.79;91.83
49827;BME280;35715;51.570;6.036;2023-08-06T10:43:31;100510.16;;;17.77;92.21
49827;BME280;35715;51.570;6.036;2023-08-06T10:45:58;100515.56;;;17.83;92.66
49827;BME280;35715;51.570;6.036;2023-08-06T10:48:34;100520.88;;;17.86;92.64
49827;BME280;35715;51.570;6.036;2023-08-06T10:51:00;100524.34;;;17.85;92.94
49827;BME280;35715;51.570;6.036;2023-08-06T10:53:26;100520.06;;;17.87;92.57
49827;BME280;35715;51.570;6.036;2023-08-06T10:55:52;100517.69;;;17.94;92.81
49827;BME280;35715;51.570;6.036;2023-08-06T10:58:17;100522.22;;;17.99;92.64
49827;BME280;35715;51.570;6.036;2023-08-06T11:00:42;100517.97;;;18.03;92.79
49827;BME280;35715;51.570;6.036;2023-08-06T11:03:08;100514.44;;;18.01;92.67
49827;BME280;35715;51.570;6.036;2023-08-06T11:05:34;100510.75;;;17.94;91.94
49827;BME280;35715;51.570;6.036;2023-08-06T11:08:00;100513.25;;;17.91;91.83
49827;BME280;35715;51.570;6.036;2023-08-06T11:10:25;100520.78;;;17.83;92.21
49827;BME280;35715;51.570;6.036;2023-08-06T11:12:51;100523.44;;;17.85;92.43
49827;BME280;35715;51.570;6.036;2023-08-06T11:15:16;100538.34;;;17.87;93.14
49827;BME280;35715;51.570;6.036;2023-08-06T11:17:42;100545.13;;;17.82;93.06
49827;BME280;35715;51.570;6.036;2023-08-06T11:20:08;100537.25;;;17.81;93.12
49827;BME280;35715;51.570;6.036;2023-08-06T11:22:33;100531.13;;;17.80;93.41
49827;BME280;35715;51.570;6.036;2023-08-06T11:25:01;100531.94;;;17.78;93.99
49827;BME280;35715;51.570;6.036;2023-08-06T11:27:29;100532.72;;;17.75;93.87
49827;BME280;35715;51.570;6.036;2023-08-06T11:30:02;100536.13;;;17.74;94.22
49827;BME280;35715;51.570;6.036;2023-08-06T11:32:27;100535.13;;;17.69;93.86
49827;BME280;35715;51.570;6.036;2023-08-06T11:34:53;100542.06;;;17.68;94.14
49827;BME280;35715;51.570;6.036;2023-08-06T11:37:23;100537.69;;;17.67;94.14
49827;BME280;35715;51.570;6.036;2023-08-06T11:39:50;100540.91;;;17.60;94.20
49827;BME280;35715;51.570;6.036;2023-08-06T11:42:15;100541.06;;;17.65;94.49
49827;BME280;35715;51.570;6.036;2023-08-06T11:44:41;100548.47;;;17.52;94.59
49827;BME280;35715;51.570;6.036;2023-08-06T11:47:15;100543.47;;;17.59;94.38
49827;BME280;35715;51.570;6.036;2023-08-06T11:49:48;100545.50;;;17.67;93.85
49827;BME280;35715;51.570;6.036;2023-08-06T11:55:02;100554.06;;;17.63;93.50
49827;BME280;35715;51.570;6.036;2023-08-06T11:57:30;100563.59;;;17.63;94.23
49827;BME280;35715;51.570;6.036;2023-08-06T12:00:01;100566.16;;;17.61;94.57
49827;BME280;35715;51.570;6.036;2023-08-06T12:02:31;100574.91;;;17.63;95.72
49827;BME280;35715;51.570;6.036;2023-08-06T12:05:00;100575.94;;;17.67;95.04
49827;BME280;35715;51.570;6.036;2023-08-06T12:07:30;100577.53;;;17.63;95.05
49827;BME280;35715;51.570;6.036;2023-08-06T12:09:56;100579.41;;;17.67;95.44
49827;BME280;35715;51.570;6.036;2023-08-06T12:12:22;100580.34;;;17.69;95.27
49827;BME280;35715;51.570;6.036;2023-08-06T12:14:48;100587.25;;;17.67;95.16
49827;BME280;35715;51.570;6.036;2023-08-06T12:17:13;100585.25;;;17.60;94.44
49827;BME280;35715;51.570;6.036;2023-08-06T12:19:39;100585.75;;;17.50;95.02
49827;BME280;35715;51.570;6.036;2023-08-06T12:22:04;100586.28;;;17.40;94.26
49827;BME280;35715;51.570;6.036;2023-08-06T12:24:30;100589.66;;;17.37;94.01
49827;BME280;35715;51.570;6.036;2023-08-06T12:26:57;100591.16;;;17.30;94.92
49827;BME280;35715;51.570;6.036;2023-08-06T12:29:23;100597.16;;;17.28;95.40
49827;BME280;35715;51.570;6.036;2023-08-06T12:31:49;100602.47;;;17.31;96.33
49827;BME280;35715;51.570;6.036;2023-08-06T12:34:14;100606.09;;;17.34;96.85
49827;BME280;35715;51.570;6.036;2023-08-06T12:36:40;100606.34;;;17.42;97.10
49827;BME280;35715;51.570;6.036;2023-08-06T12:39:05;100601.47;;;17.51;96.94
49827;BME280;35715;51.570;6.036;2023-08-06T12:41:30;100609.59;;;17.61;97.31
49827;BME280;35715;51.570;6.036;2023-08-06T12:43:56;100613.91;;;17.59;96.84
49827;BME280;35715;51.570;6.036;2023-08-06T12:46:21;100617.50;;;17.62;96.27
49827;BME280;35715;51.570;6.036;2023-08-06T12:48:46;100615.69;;;17.60;96.68
49827;BME280;35715;51.570;6.036;2023-08-06T12:51:13;100618.91;;;17.52;96.35
49827;BME280;35715;51.570;6.036;2023-08-06T12:53:39;100626.13;;;17.60;96.64
49827;BME280;35715;51.570;6.036;2023-08-06T12:56:04;100628.72;;;17.60;96.54
49827;BME280;35715;51.570;6.036;2023-08-06T12:58:30;100633.94;;;17.60;96.40